Whitfield, Alabama
Current Conditions -  °F | °C
As of 1:55 PM on Thursday 30 Oct 2014 (Local Time) from KDYA Reporting Station
Clear Clear  
Wind Chill: 69°   Ceiling: Unl
Heat Index: 69°   Visibility: 10mi
Dew Point: 32°   Wind: 3mph
Humidity: 25%   Direction: 360°N
Pressure: 30.06"   Gusts: NA
Location:  32.436°N, 88.2056°W
Report Text: KDYA 301855Z AUTO 36003KT 10SM CLR 21/00 A3006 RMK AO2 T02061001
Loading
Personal Weather Stations






























Interactive Weather Map
Tropical Storm Tracking
New forecast layout! Learn more

10-Day Weather Forecast

Advertisements
Track Severe Weather on mobile